createdAt,value
2023-03-08T00:03:44.891Z,473.00
2023-03-08T00:07:44.791Z,477.00
2023-03-08T00:11:44.763Z,477.00
2023-03-08T00:15:44.758Z,471.00
2023-03-08T00:19:44.688Z,472.00
2023-03-08T00:23:44.644Z,471.00
2023-03-08T00:27:44.626Z,470.00
2023-03-08T00:31:44.683Z,472.00
2023-03-08T00:35:44.636Z,470.00
2023-03-08T00:39:44.648Z,468.00
2023-03-08T00:43:44.655Z,466.00
2023-03-08T00:47:44.677Z,467.00
2023-03-08T00:51:44.642Z,469.00
2023-03-08T00:55:44.618Z,463.00
2023-03-08T00:59:44.601Z,469.00
2023-03-08T01:03:44.628Z,468.00
2023-03-08T01:07:44.634Z,468.00
2023-03-08T01:11:44.632Z,472.00
2023-03-08T01:15:44.599Z,475.00
2023-03-08T01:19:44.666Z,474.00
2023-03-08T01:23:44.650Z,479.00
2023-03-08T01:27:44.668Z,477.00
2023-03-08T01:31:44.746Z,478.00
2023-03-08T01:35:44.797Z,473.00
2023-03-08T01:39:44.807Z,478.00
2023-03-08T01:43:44.856Z,479.00
2023-03-08T01:47:44.911Z,475.00
2023-03-08T01:51:44.953Z,478.00
2023-03-08T01:55:44.996Z,478.00
2023-03-08T01:59:45.034Z,477.00
2023-03-08T02:03:45.092Z,480.00
2023-03-08T02:07:45.168Z,480.00
2023-03-08T02:11:45.152Z,482.00
2023-03-08T02:15:45.149Z,481.00
2023-03-08T02:19:45.215Z,483.00
2023-03-08T02:23:45.217Z,483.00
2023-03-08T02:27:45.289Z,477.00
2023-03-08T02:31:45.367Z,481.00
2023-03-08T02:35:45.377Z,481.00
2023-03-08T02:39:45.392Z,482.00
2023-03-08T02:43:45.414Z,480.00
2023-03-08T02:47:45.523Z,484.00
2023-03-08T02:51:45.519Z,477.00
2023-03-08T02:55:45.634Z,474.00
2023-03-08T02:59:45.727Z,472.00
2023-03-08T03:03:45.893Z,479.00
2023-03-08T03:07:45.874Z,474.00
2023-03-08T03:11:46.572Z,472.00
2023-03-08T03:15:46.126Z,476.00
2023-03-08T03:19:46.216Z,473.00
2023-03-08T03:23:46.331Z,473.00
2023-03-08T03:27:46.423Z,471.00
2023-03-08T03:31:46.544Z,470.00
2023-03-08T03:35:46.720Z,473.00
2023-03-08T03:39:46.857Z,475.00
2023-03-08T03:43:46.998Z,470.00
2023-03-08T03:47:47.109Z,475.00
2023-03-08T03:51:47.269Z,479.00
2023-03-08T03:55:47.423Z,476.00
2023-03-08T03:59:47.552Z,469.00
2023-03-08T04:03:47.784Z,471.00
2023-03-08T04:07:47.890Z,469.00
2023-03-08T04:11:48.076Z,466.00
2023-03-08T04:15:48.373Z,458.00
2023-03-08T04:19:48.396Z,467.00
2023-03-08T04:23:48.561Z,468.00
2023-03-08T04:27:48.772Z,469.00
2023-03-08T04:31:48.969Z,471.00
2023-03-08T04:35:49.215Z,477.00
2023-03-08T04:39:49.342Z,483.00
2023-03-08T04:43:49.569Z,477.00
2023-03-08T04:47:49.749Z,483.00
2023-03-08T04:51:49.969Z,482.00
2023-03-08T04:55:50.184Z,479.00
2023-03-08T04:59:50.385Z,484.00
2023-03-08T05:03:50.627Z,486.00
2023-03-08T05:07:50.615Z,483.00
2023-03-08T05:11:50.566Z,484.00
2023-03-08T05:15:50.507Z,489.00
2023-03-08T05:19:50.477Z,490.00
2023-03-08T05:23:50.455Z,489.00
2023-03-08T05:27:50.406Z,482.00
2023-03-08T05:31:50.467Z,483.00
2023-03-08T05:35:50.498Z,482.00
2023-03-08T05:39:50.315Z,478.00
2023-03-08T05:43:50.402Z,479.00
2023-03-08T05:47:50.537Z,487.00
2023-03-08T05:51:50.727Z,486.00
2023-03-08T05:55:50.662Z,490.00
2023-03-08T05:59:50.648Z,488.00
2023-03-08T06:03:50.617Z,486.00
2023-03-08T06:07:50.596Z,483.00
2023-03-08T06:11:50.554Z,489.00
2023-03-08T06:15:50.510Z,499.00
2023-03-08T06:19:50.494Z,498.00
2023-03-08T06:23:50.488Z,496.00
2023-03-08T06:27:50.377Z,499.00
2023-03-08T06:31:50.335Z,494.00
2023-03-08T06:35:50.366Z,499.00
2023-03-08T06:39:50.772Z,507.00
2023-03-08T06:43:50.230Z,586.00
2023-03-08T06:47:50.235Z,698.00
2023-03-08T06:51:50.280Z,749.00
2023-03-08T06:55:50.270Z,825.00
2023-03-08T06:59:50.270Z,910.00
2023-03-08T07:03:50.285Z,972.00
2023-03-08T07:07:50.447Z,1050.00
2023-03-08T07:11:50.640Z,1116.00
2023-03-08T07:15:51.321Z,1156.00
2023-03-08T07:19:50.907Z,1176.00
2023-03-08T07:23:50.958Z,1204.00
2023-03-08T07:27:50.968Z,1223.00
2023-03-08T07:31:51.044Z,1282.00
2023-03-08T07:35:51.051Z,1323.00
2023-03-08T07:39:51.293Z,1357.00
2023-03-08T07:43:51.014Z,1377.00
2023-03-08T07:47:51.286Z,1373.00
2023-03-08T07:51:51.283Z,1527.00
2023-03-08T07:55:51.387Z,1509.00
2023-03-08T07:59:53.413Z,1512.00
2023-03-08T08:03:51.880Z,1517.00
2023-03-08T08:07:51.281Z,1560.00
2023-03-08T08:11:51.299Z,1562.00
2023-03-08T08:15:51.216Z,1591.00
2023-03-08T08:19:51.184Z,1572.00
2023-03-08T08:23:51.123Z,1619.00
2023-03-08T08:27:51.089Z,1624.00
2023-03-08T08:31:51.099Z,1643.00
2023-03-08T08:35:51.367Z,1616.00
2023-03-08T08:39:51.035Z,1638.00
2023-03-08T08:43:51.288Z,1652.00
2023-03-08T08:47:51.310Z,1514.00
2023-03-08T08:51:50.870Z,1439.00
2023-03-08T08:55:50.854Z,1383.00
2023-03-08T08:59:50.810Z,1376.00
2023-03-08T09:03:50.849Z,1376.00
2023-03-08T09:07:51.330Z,1308.00
2023-03-08T09:11:55.517Z,1223.00
2023-03-08T09:15:51.171Z,1215.00
2023-03-08T09:19:51.192Z,1152.00
2023-03-08T09:23:51.329Z,1086.00
2023-03-08T09:27:51.345Z,1095.00
2023-03-08T09:31:51.359Z,1035.00
2023-03-08T09:35:51.383Z,1010.00
2023-03-08T09:39:51.343Z,1004.00
2023-03-08T09:43:51.366Z,970.00
2023-03-08T09:47:51.186Z,947.00
2023-03-08T09:51:51.353Z,923.00
2023-03-08T09:55:51.360Z,887.00
2023-03-08T09:59:51.357Z,867.00
2023-03-08T10:03:51.053Z,860.00
2023-03-08T10:07:51.341Z,860.00
2023-03-08T10:11:51.164Z,839.00
2023-03-08T10:15:51.091Z,823.00
2023-03-08T10:19:51.330Z,825.00
2023-03-08T10:23:51.030Z,811.00
2023-03-08T10:27:51.011Z,806.00
2023-03-08T10:31:50.957Z,805.00
2023-03-08T10:35:51.365Z,804.00
2023-03-08T10:39:50.860Z,786.00
2023-03-08T10:43:50.836Z,795.00
2023-03-08T10:47:51.511Z,864.00
2023-03-08T10:51:51.349Z,884.00
2023-03-08T10:55:51.394Z,884.00
2023-03-08T10:59:51.554Z,882.00
2023-03-08T11:03:51.745Z,859.00
2023-03-08T11:07:52.392Z,827.00
2023-03-08T11:11:52.153Z,813.00
2023-03-08T11:15:52.387Z,791.00
2023-03-08T11:19:52.866Z,772.00
2023-03-08T11:23:52.798Z,765.00
2023-03-08T11:27:53.106Z,752.00
2023-03-08T11:31:53.205Z,731.00
2023-03-08T11:35:53.922Z,713.00
2023-03-08T11:39:53.869Z,723.00
2023-03-08T11:43:53.884Z,749.00
2023-03-08T11:47:53.882Z,764.00
2023-03-08T11:51:54.027Z,765.00
2023-03-08T11:55:54.138Z,757.00
2023-03-08T11:59:54.425Z,745.00
2023-03-08T12:03:54.562Z,729.00
2023-03-08T12:07:54.590Z,716.00
2023-03-08T12:11:54.696Z,697.00
2023-03-08T12:15:54.941Z,694.00
2023-03-08T12:19:55.019Z,682.00
2023-03-08T12:23:55.195Z,668.00
2023-03-08T12:27:55.294Z,652.00
2023-03-08T12:31:55.508Z,638.00
2023-03-08T12:35:55.981Z,708.00
2023-03-08T12:39:55.567Z,751.00
2023-03-08T12:43:55.645Z,822.00
2023-03-08T12:47:55.745Z,862.00
2023-03-08T12:51:55.728Z,903.00
2023-03-08T12:55:55.763Z,890.00
2023-03-08T12:59:55.763Z,856.00
2023-03-08T13:03:55.831Z,848.00
2023-03-08T13:07:55.898Z,810.00
2023-03-08T13:11:56.017Z,825.00
2023-03-08T13:15:56.109Z,834.00
2023-03-08T13:19:56.237Z,778.00
2023-03-08T13:23:56.283Z,779.00
2023-03-08T13:27:56.397Z,767.00
2023-03-08T13:31:56.409Z,747.00
2023-03-08T13:35:56.530Z,731.00
2023-03-08T13:39:56.536Z,723.00
2023-03-08T13:43:56.715Z,711.00
2023-03-08T13:47:56.653Z,706.00
2023-03-08T13:51:56.710Z,713.00
2023-03-08T13:55:56.811Z,701.00
2023-03-08T13:59:56.968Z,685.00
2023-03-08T14:03:56.936Z,678.00
2023-03-08T14:07:56.974Z,682.00
2023-03-08T14:11:57.018Z,673.00
2023-03-08T14:15:57.163Z,667.00
2023-03-08T14:19:57.257Z,663.00
2023-03-08T14:23:57.313Z,658.00
2023-03-08T14:27:57.300Z,650.00
2023-03-08T14:31:57.517Z,647.00
2023-03-08T14:35:57.453Z,633.00
2023-03-08T14:39:57.943Z,624.00
2023-03-08T14:43:57.551Z,615.00
2023-03-08T14:47:57.634Z,609.00
2023-03-08T14:51:57.705Z,606.00
2023-03-08T14:55:57.799Z,599.00
2023-03-08T14:59:57.863Z,591.00
2023-03-08T15:03:58.013Z,587.00
2023-03-08T15:07:58.033Z,578.00
2023-03-08T15:11:58.110Z,575.00
2023-03-08T15:15:58.250Z,570.00
2023-03-08T15:19:58.240Z,563.00
2023-03-08T15:23:58.329Z,567.00
2023-03-08T15:27:58.404Z,563.00
2023-03-08T15:31:58.486Z,559.00
2023-03-08T15:35:58.608Z,558.00
2023-03-08T15:39:58.642Z,555.00
2023-03-08T15:43:58.742Z,555.00
2023-03-08T15:47:58.833Z,550.00
2023-03-08T15:51:59.001Z,541.00
2023-03-08T15:55:59.022Z,538.00
2023-03-08T15:59:59.115Z,537.00
2023-03-08T16:03:59.194Z,525.00
2023-03-08T16:07:59.256Z,523.00
2023-03-08T16:11:59.365Z,515.00
2023-03-08T16:15:59.439Z,518.00
2023-03-08T16:19:59.484Z,516.00
2023-03-08T16:23:59.654Z,517.00
2023-03-08T16:27:59.662Z,515.00
2023-03-08T16:31:59.848Z,513.00
2023-03-08T16:35:59.841Z,512.00
2023-03-08T16:39:59.895Z,512.00
2023-03-08T16:43:59.962Z,508.00
2023-03-08T16:48:00.036Z,510.00
2023-03-08T16:52:00.142Z,513.00
2023-03-08T16:56:00.273Z,512.00
2023-03-08T17:00:00.246Z,511.00
2023-03-08T17:04:00.316Z,509.00
2023-03-08T17:08:00.431Z,515.00
2023-03-08T17:12:00.521Z,518.00
2023-03-08T17:16:00.652Z,512.00
2023-03-08T17:20:00.726Z,506.00
2023-03-08T17:24:00.747Z,502.00
2023-03-08T17:28:00.773Z,500.00
2023-03-08T17:32:00.937Z,500.00
2023-03-08T17:36:01.202Z,504.00
2023-03-08T17:40:01.212Z,507.00
2023-03-08T17:44:01.359Z,504.00
2023-03-08T17:48:01.432Z,506.00
2023-03-08T17:52:01.570Z,504.00
2023-03-08T17:56:01.680Z,499.00
2023-03-08T18:00:01.828Z,502.00
2023-03-08T18:04:01.976Z,502.00
2023-03-08T18:08:02.036Z,511.00
2023-03-08T18:12:02.121Z,518.00
2023-03-08T18:16:02.305Z,518.00
2023-03-08T18:20:02.372Z,521.00
2023-03-08T18:24:02.484Z,516.00
2023-03-08T18:28:02.652Z,520.00
2023-03-08T18:32:02.787Z,530.00
2023-03-08T18:36:02.900Z,528.00
2023-03-08T18:40:03.027Z,533.00
2023-03-08T18:44:03.144Z,532.00
2023-03-08T18:48:03.338Z,532.00
2023-03-08T18:52:03.453Z,535.00
2023-03-08T18:56:03.652Z,538.00
2023-03-08T19:00:03.788Z,536.00
2023-03-08T19:04:04.064Z,539.00
2023-03-08T19:08:04.085Z,534.00
2023-03-08T19:12:04.257Z,533.00
2023-03-08T19:16:04.461Z,536.00
2023-03-08T19:20:04.597Z,538.00
2023-03-08T19:24:04.767Z,538.00
2023-03-08T19:28:04.925Z,537.00
2023-03-08T19:32:05.107Z,535.00
2023-03-08T19:36:05.306Z,534.00
2023-03-08T19:40:05.422Z,541.00
2023-03-08T19:44:05.608Z,543.00
2023-03-08T19:48:05.761Z,548.00
2023-03-08T19:52:05.992Z,549.00
2023-03-08T19:56:06.121Z,547.00
2023-03-08T20:00:06.332Z,550.00
2023-03-08T20:04:06.485Z,553.00
2023-03-08T20:08:06.694Z,557.00
2023-03-08T20:12:06.874Z,555.00
2023-03-08T20:16:07.028Z,551.00
2023-03-08T20:20:07.239Z,557.00
2023-03-08T20:24:07.444Z,557.00
2023-03-08T20:28:07.623Z,553.00
2023-03-08T20:32:07.933Z,555.00
2023-03-08T20:36:08.028Z,560.00
2023-03-08T20:40:08.253Z,558.00
2023-03-08T20:44:08.438Z,556.00
2023-03-08T20:48:08.662Z,557.00
2023-03-08T20:52:08.839Z,559.00
2023-03-08T20:56:09.163Z,556.00
2023-03-08T21:00:09.247Z,554.00
2023-03-08T21:04:09.477Z,549.00
2023-03-08T21:08:09.660Z,553.00
2023-03-08T21:12:09.868Z,553.00
2023-03-08T21:16:10.145Z,553.00
2023-03-08T21:20:10.335Z,549.00
2023-03-08T21:24:10.288Z,551.00
2023-03-08T21:28:10.217Z,550.00
2023-03-08T21:32:10.270Z,551.00
2023-03-08T21:36:10.230Z,555.00
2023-03-08T21:40:10.141Z,548.00
2023-03-08T21:44:10.104Z,553.00
2023-03-08T21:48:10.074Z,558.00
2023-03-08T21:52:10.003Z,558.00
2023-03-08T21:56:10.002Z,557.00
2023-03-08T22:00:09.947Z,555.00
2023-03-08T22:04:10.156Z,553.00
2023-03-08T22:08:10.097Z,557.00
2023-03-08T22:12:10.084Z,554.00
2023-03-08T22:16:10.231Z,555.00
2023-03-08T22:20:10.021Z,548.00
2023-03-08T22:24:09.980Z,550.00
2023-03-08T22:28:10.105Z,550.00
2023-03-08T22:32:09.909Z,540.00
2023-03-08T22:36:09.836Z,541.00
2023-03-08T22:40:09.836Z,543.00
2023-03-08T22:44:09.872Z,542.00
2023-03-08T22:48:09.846Z,546.00
2023-03-08T22:52:09.804Z,543.00
2023-03-08T22:56:09.752Z,544.00
2023-03-08T23:00:09.748Z,542.00
2023-03-08T23:04:09.697Z,537.00
2023-03-08T23:08:09.655Z,537.00
2023-03-08T23:12:09.619Z,537.00
2023-03-08T23:16:09.660Z,533.00
2023-03-08T23:20:09.546Z,537.00
2023-03-08T23:24:09.744Z,537.00
2023-03-08T23:28:09.690Z,541.00
2023-03-08T23:32:09.706Z,537.00
2023-03-08T23:36:09.684Z,533.00
2023-03-08T23:40:09.567Z,534.00
2023-03-08T23:44:09.542Z,538.00
2023-03-08T23:48:09.504Z,540.00
2023-03-08T23:52:09.489Z,539.00
2023-03-08T23:56:09.478Z,533.00
